Time;durP1;ratioP1;P1;durP2;ratioP2;P2;SDS_P1;SDS_P2;PMS_P1;PMS_P2;Temp;Humidity;BMP_temperature;BMP_pressure;BME280_temperature;BME280_humidity;BME280_pressure;Samples;Min_cycle;Max_cycle;Signal;HPM_P1;HPM_P2
2023/10/11 00:01:30;;;;;;;7.68;1.48;;;;;;;;;;4948936;28;20106;-67
2023/10/11 00:03:58;;;;;;;7.38;1.30;;;;;;;;;;4951806;28;20043;-66
2023/10/11 00:06:26;;;;;;;4.20;1.15;;;;;;;;;;4951119;28;20046;-67
2023/10/11 00:08:53;;;;;;;10.15;1.88;;;;;;;;;;4966638;28;20142;-61
2023/10/11 00:11:24;;;;;;;6.85;1.30;;;;;;;;;;4951967;28;20478;-62
2023/10/11 00:13:53;;;;;;;5.82;1.30;;;;;;;;;;4959803;28;20126;-65
2023/10/11 00:16:21;;;;;;;4.50;1.27;;;;;;;;;;4927580;28;20069;-67
2023/10/11 00:18:49;;;;;;;5.20;1.40;;;;;;;;;;4950526;28;20085;-65
2023/10/11 00:21:16;;;;;;;3.90;1.40;;;;;;;;;;4948876;28;20061;-67
2023/10/11 00:23:44;;;;;;;4.30;1.48;;;;;;;;;;4949762;28;20043;-65
2023/10/11 00:26:14;;;;;;;10.43;1.48;;;;;;;;;;4953343;28;20038;-67
2023/10/11 00:28:41;;;;;;;13.38;1.40;;;;;;;;;;4951997;28;20061;-65
2023/10/11 00:31:16;;;;;;;7.20;1.38;;;;;;;;;;4955672;28;20043;-65
2023/10/11 00:33:43;;;;;;;6.32;1.35;;;;;;;;;;4958633;28;20132;-66
2023/10/11 00:36:10;;;;;;;9.25;1.45;;;;;;;;;;4955522;28;20132;-66
2023/10/11 00:38:49;;;;;;;6.88;1.58;;;;;;;;;;4955629;28;20182;-65
2023/10/11 00:41:19;;;;;;;6.50;1.38;;;;;;;;;;4954672;28;20069;-65
2023/10/11 00:43:54;;;;;;;6.70;1.08;;;;;;;;;;4954200;28;20063;-65
2023/10/11 00:46:22;;;;;;;6.22;1.70;;;;;;;;;;4953794;28;20101;-67
2023/10/11 00:49:04;;;;;;;4.53;1.10;;;;;;;;;;4954738;28;21881;-65
2023/10/11 00:51:31;;;;;;;5.82;1.50;;;;;;;;;;4952839;28;20280;-60
2023/10/11 00:53:59;;;;;;;7.18;1.77;;;;;;;;;;4954449;28;20046;-61
2023/10/11 00:56:32;;;;;;;11.15;1.60;;;;;;;;;;4956588;28;21340;-64
2023/10/11 00:59:10;;;;;;;5.45;1.20;;;;;;;;;;4954784;28;20027;-64
2023/10/11 01:01:42;;;;;;;11.35;1.65;;;;;;;;;;4952632;28;20149;-64
2023/10/11 01:04:15;;;;;;;7.35;1.42;;;;;;;;;;4954198;28;20046;-60
2023/10/11 01:06:42;;;;;;;6.82;1.33;;;;;;;;;;4954146;28;20051;-60
2023/10/11 01:09:24;;;;;;;6.60;1.67;;;;;;;;;;4954816;28;20035;-62
2023/10/11 01:11:51;;;;;;;5.05;1.33;;;;;;;;;;4954448;28;21297;-62
2023/10/11 01:14:17;;;;;;;7.63;1.42;;;;;;;;;;4951190;28;20039;-62
2023/10/11 01:16:44;;;;;;;9.90;1.38;;;;;;;;;;4952229;28;20042;-65
2023/10/11 01:19:15;;;;;;;8.93;1.60;;;;;;;;;;4951975;28;20043;-63
2023/10/11 01:21:46;;;;;;;8.15;1.42;;;;;;;;;;4953236;28;20043;-64
2023/10/11 01:24:16;;;;;;;5.07;1.40;;;;;;;;;;4954366;28;20051;-63
2023/10/11 01:26:43;;;;;;;4.88;1.40;;;;;;;;;;4956814;28;20137;-61
2023/10/11 01:29:09;;;;;;;6.60;1.52;;;;;;;;;;4974230;28;20145;-61
2023/10/11 01:31:36;;;;;;;5.88;1.40;;;;;;;;;;4961842;28;20030;-61
2023/10/11 01:34:03;;;;;;;8.40;1.65;;;;;;;;;;4953870;28;20335;-63
2023/10/11 01:36:30;;;;;;;9.48;1.70;;;;;;;;;;4953233;28;20038;-61
2023/10/11 01:39:00;;;;;;;5.05;1.40;;;;;;;;;;4954791;28;20046;-60
2023/10/11 01:41:27;;;;;;;8.50;1.65;;;;;;;;;;4953460;28;20062;-62
2023/10/11 01:43:55;;;;;;;10.10;1.77;;;;;;;;;;4966324;28;20685;-63
2023/10/11 01:46:34;;;;;;;7.28;1.20;;;;;;;;;;4969349;28;20045;-68
2023/10/11 01:49:02;;;;;;;7.70;2.60;;;;;;;;;;4953467;28;20043;-63
2023/10/11 01:51:28;;;;;;;11.45;1.65;;;;;;;;;;4953011;28;20035;-65
2023/10/11 01:53:56;;;;;;;7.97;1.50;;;;;;;;;;4951350;28;20109;-62
2023/10/11 01:56:24;;;;;;;6.72;1.63;;;;;;;;;;4952735;28;20454;-63
2023/10/11 01:58:51;;;;;;;10.65;1.50;;;;;;;;;;4955722;28;20611;-64
2023/10/11 02:01:23;;;;;;;11.10;1.58;;;;;;;;;;4952824;28;20046;-65
2023/10/11 02:03:59;;;;;;;14.20;1.38;;;;;;;;;;4958581;28;20045;-64
2023/10/11 02:06:30;;;;;;;10.77;1.77;;;;;;;;;;4953170;28;20039;-61
2023/10/11 02:08:57;;;;;;;8.73;1.40;;;;;;;;;;4954222;28;20202;-63
2023/10/11 02:11:25;;;;;;;8.27;1.30;;;;;;;;;;4955016;28;20141;-62
2023/10/11 02:13:54;;;;;;;9.80;1.77;;;;;;;;;;4958580;28;20556;-63
2023/10/11 02:16:20;;;;;;;5.85;1.50;;;;;;;;;;4953929;28;20057;-62
2023/10/11 02:18:51;;;;;;;6.25;1.70;;;;;;;;;;4957056;28;20041;-63
2023/10/11 02:21:19;;;;;;;8.27;1.55;;;;;;;;;;4959905;28;20046;-62
2023/10/11 02:23:46;;;;;;;7.15;1.50;;;;;;;;;;4969450;28;20114;-63
2023/10/11 02:26:13;;;;;;;7.47;1.40;;;;;;;;;;4954664;28;20038;-63
2023/10/11 02:28:40;;;;;;;6.07;1.70;;;;;;;;;;4951828;28;20054;-61
2023/10/11 02:31:07;;;;;;;7.22;1.65;;;;;;;;;;4951978;28;20122;-62
2023/10/11 02:33:34;;;;;;;12.77;1.52;;;;;;;;;;4952532;28;20047;-62
2023/10/11 02:36:17;;;;;;;8.80;1.60;;;;;;;;;;4949433;28;20601;-62
2023/10/11 02:38:54;;;;;;;8.07;1.77;;;;;;;;;;4952228;28;20101;-64
2023/10/11 02:41:24;;;;;;;4.75;1.48;;;;;;;;;;4945025;28;20062;-62
2023/10/11 02:43:54;;;;;;;5.65;1.50;;;;;;;;;;4951121;28;20054;-63
2023/10/11 02:46:24;;;;;;;4.30;1.50;;;;;;;;;;4947697;28;20050;-63
2023/10/11 02:49:05;;;;;;;9.00;1.77;;;;;;;;;;4952157;28;20051;-61
2023/10/11 02:51:33;;;;;;;8.13;1.83;;;;;;;;;;4951466;28;20055;-60
2023/10/11 02:54:04;;;;;;;8.57;1.85;;;;;;;;;;4951554;28;21365;-63
2023/10/11 02:56:46;;;;;;;11.27;1.77;;;;;;;;;;4952152;28;20555;-65
2023/10/11 02:59:19;;;;;;;8.10;1.90;;;;;;;;;;4953413;28;20510;-67
2023/10/11 03:01:59;;;;;;;8.63;1.80;;;;;;;;;;4964850;28;20402;-63
2023/10/11 03:04:35;;;;;;;8.23;2.17;;;;;;;;;;4951361;28;20498;-64
2023/10/11 03:07:02;;;;;;;6.68;1.88;;;;;;;;;;4938133;28;20042;-62
2023/10/11 03:09:48;;;;;;;8.85;1.85;;;;;;;;;;4938394;28;20309;-60
2023/10/11 03:12:18;;;;;;;12.77;2.03;;;;;;;;;;4950889;28;20577;-64
2023/10/11 03:14:46;;;;;;;10.00;1.80;;;;;;;;;;4948572;28;20035;-60
2023/10/11 03:17:17;;;;;;;7.20;1.65;;;;;;;;;;4963854;28;20078;-62
2023/10/11 03:19:45;;;;;;;8.50;1.85;;;;;;;;;;4962736;28;20046;-60
2023/10/11 03:22:31;;;;;;;13.75;3.20;;;;;;;;;;4936436;28;20039;-63
2023/10/11 03:25:12;;;;;;;12.60;2.58;;;;;;;;;;4943640;28;20175;-63
2023/10/11 03:27:48;;;;;;;8.90;2.20;;;;;;;;;;4942349;28;20153;-62
2023/10/11 03:30:15;;;;;;;7.25;1.77;;;;;;;;;;4944246;28;20069;-61
2023/10/11 03:32:44;;;;;;;9.10;2.17;;;;;;;;;;4928912;28;20635;-60
2023/10/11 03:35:16;;;;;;;10.02;2.42;;;;;;;;;;4934291;28;20042;-60
2023/10/11 03:37:57;;;;;;;9.18;2.47;;;;;;;;;;4944498;28;20081;-63
2023/10/11 03:40:34;;;;;;;15.48;2.70;;;;;;;;;;4949268;28;20050;-65
2023/10/11 03:43:16;;;;;;;10.07;2.08;;;;;;;;;;4968714;28;20141;-61
2023/10/11 03:45:56;;;;;;;9.35;2.55;;;;;;;;;;4949224;28;20175;-63
2023/10/11 03:48:28;;;;;;;7.40;2.35;;;;;;;;;;4948825;28;20117;-59
2023/10/11 03:50:55;;;;;;;10.45;2.60;;;;;;;;;;4949155;28;20042;-63
2023/10/11 03:53:22;;;;;;;11.27;2.10;;;;;;;;;;4946968;28;20050;-62
2023/10/11 03:55:50;;;;;;;5.72;2.10;;;;;;;;;;4939480;28;20365;-58
2023/10/11 03:58:37;;;;;;;12.90;2.42;;;;;;;;;;4958535;28;20067;-59
2023/10/11 04:01:14;;;;;;;17.58;2.65;;;;;;;;;;4966153;28;20073;-60
2023/10/11 04:03:42;;;;;;;10.32;2.83;;;;;;;;;;4957982;28;20201;-61
2023/10/11 04:06:15;;;;;;;7.20;2.40;;;;;;;;;;4980422;28;20318;-62
2023/10/11 04:08:42;;;;;;;;;;;;;;;;;;4969752;28;20942;-60
2023/10/11 04:11:29;;;;;;;13.23;2.60;;;;;;;;;;4969318;28;20107;-61
2023/10/11 04:13:56;;;;;;;13.88;2.40;;;;;;;;;;4968500;28;20117;-62
2023/10/11 04:16:23;;;;;;;9.35;2.20;;;;;;;;;;4968791;28;20583;-63
2023/10/11 04:18:53;;;;;;;13.27;2.55;;;;;;;;;;4970275;28;20038;-60
2023/10/11 04:21:35;;;;;;;12.15;2.42;;;;;;;;;;4970004;28;20510;-59
2023/10/11 04:24:06;;;;;;;7.47;2.90;;;;;;;;;;4970212;28;20043;-59
2023/10/11 04:26:33;;;;;;;18.13;2.80;;;;;;;;;;4964710;28;20054;-62
2023/10/11 04:29:07;;;;;;;9.48;2.38;;;;;;;;;;4955049;28;20161;-58
2023/10/11 04:31:55;;;;;;;;;;;;;;;;;;4949999;28;20026;-59
2023/10/11 04:34:23;;;;;;;14.82;2.50;;;;;;;;;;4956557;28;19922;-59
2023/10/11 04:36:51;;;;;;;10.88;2.83;;;;;;;;;;4955797;28;20042;-63
2023/10/11 04:39:27;;;;;;;8.48;2.17;;;;;;;;;;4955638;28;20051;-60
2023/10/11 04:41:57;;;;;;;7.03;2.25;;;;;;;;;;4954165;28;20090;-59
2023/10/11 04:44:42;;;;;;;10.38;2.30;;;;;;;;;;4954354;28;20548;-62
2023/10/11 04:47:12;;;;;;;12.80;2.60;;;;;;;;;;4953598;28;20053;-61
2023/10/11 04:49:43;;;;;;;11.70;2.47;;;;;;;;;;4964778;28;20042;-59
2023/10/11 04:55:12;;;;;;;10.02;2.08;;;;;;;;;;4956667;28;20054;-61
2023/10/11 04:58:21;;;;;;;7.93;2.15;;;;;;;;;;4955340;28;20042;-62
2023/10/11 05:00:43;;;;;;;10.23;2.20;;;;;;;;;;4952449;28;20046;-63
2023/10/11 05:03:12;;;;;;;8.38;2.10;;;;;;;;;;4956614;28;20046;-63
2023/10/11 05:05:42;;;;;;;13.25;2.67;;;;;;;;;;4956982;28;20117;-62
2023/10/11 05:08:21;;;;;;;10.18;2.50;;;;;;;;;;4954806;28;20513;-59
2023/10/11 05:10:50;;;;;;;7.30;2.30;;;;;;;;;;4969985;28;20049;-59
2023/10/11 05:13:36;;;;;;;7.28;2.25;;;;;;;;;;4952220;28;20582;-59
2023/10/11 05:16:06;;;;;;;14.50;2.53;;;;;;;;;;4954880;28;20042;-59
2023/10/11 05:18:37;;;;;;;7.00;2.25;;;;;;;;;;4967637;28;20583;-59
2023/10/11 05:21:14;;;;;;;7.45;2.15;;;;;;;;;;4974607;28;20062;-59
2023/10/11 05:24:14;;;;;;;9.80;1.92;;;;;;;;;;4970217;28;20114;-58
2023/10/11 05:26:47;;;;;;;13.02;1.95;;;;;;;;;;4953356;28;20058;-58
2023/10/11 05:29:24;;;;;;;6.88;1.92;;;;;;;;;;4954819;28;20346;-57
2023/10/11 05:35:07;;;;;;;6.30;1.90;;;;;;;;;;4952553;28;20491;-59
2023/10/11 05:51:19;;;;;;;6.20;2.00;;;;;;;;;;4954751;28;20515;-58
2023/10/11 05:53:49;;;;;;;9.20;1.88;;;;;;;;;;4964251;28;20403;-61
2023/10/11 05:56:22;;;;;;;9.27;1.80;;;;;;;;;;4957477;28;20035;-60
2023/10/11 05:58:52;;;;;;;10.15;2.22;;;;;;;;;;4950662;28;21432;-58
2023/10/11 06:01:22;;;;;;;6.28;1.80;;;;;;;;;;4953668;28;20047;-59
2023/10/11 06:03:52;;;;;;;4.70;1.70;;;;;;;;;;4952090;28;20046;-59
2023/10/11 06:06:32;;;;;;;9.38;1.88;;;;;;;;;;4954404;28;20118;-62
2023/10/11 06:08:59;;;;;;;6.78;1.88;;;;;;;;;;4943446;28;20042;-62
2023/10/11 06:11:29;;;;;;;8.68;2.20;;;;;;;;;;4953394;28;20408;-60
2023/10/11 06:13:56;;;;;;;7.60;2.00;;;;;;;;;;4953449;28;20455;-60
2023/10/11 06:16:24;;;;;;;5.30;2.15;;;;;;;;;;4953079;28;20516;-62
2023/10/11 06:18:57;;;;;;;7.90;2.50;;;;;;;;;;4950035;28;20069;-59
2023/10/11 06:21:33;;;;;;;;;;;;;;;;;;4944054;28;20051;-60
2023/10/11 06:24:04;;;;;;;13.57;2.55;;;;;;;;;;4952525;28;19928;-59
2023/10/11 06:29:03;;;;;;;9.20;2.40;;;;;;;;;;4954049;28;20097;-59
2023/10/11 06:31:39;;;;;;;6.57;2.38;;;;;;;;;;4953578;28;20974;-59
2023/10/11 06:34:23;;;;;;;9.50;2.08;;;;;;;;;;4950595;28;20054;-57
2023/10/11 06:36:50;;;;;;;8.32;2.17;;;;;;;;;;4943523;28;20112;-58
2023/10/11 06:42:21;;;;;;;5.90;2.10;;;;;;;;;;4942546;28;20138;-59
2023/10/11 06:44:49;;;;;;;8.45;2.20;;;;;;;;;;4966315;28;20095;-62
2023/10/11 06:47:16;;;;;;;8.23;2.33;;;;;;;;;;4956080;28;20051;-60
2023/10/11 06:50:12;;;;;;;8.30;2.53;;;;;;;;;;4969737;28;20042;-59
2023/10/11 06:52:43;;;;;;;16.70;2.80;;;;;;;;;;4968470;28;20057;-59
2023/10/11 06:57:56;;;;;;;11.57;2.75;;;;;;;;;;4970042;28;20046;-62
2023/10/11 07:00:28;;;;;;;8.90;2.40;;;;;;;;;;4977936;28;20050;-59
2023/10/11 07:03:06;;;;;;;7.97;2.45;;;;;;;;;;4970060;28;20034;-63
2023/10/11 07:05:41;;;;;;;11.57;2.78;;;;;;;;;;4953903;28;20474;-62
2023/10/11 07:08:10;;;;;;;8.23;2.50;;;;;;;;;;4967056;28;20063;-63
2023/10/11 07:10:46;;;;;;;8.02;2.85;;;;;;;;;;4966652;28;20042;-61
2023/10/11 07:13:13;;;;;;;10.20;2.65;;;;;;;;;;4965519;28;20194;-63
2023/10/11 07:15:41;;;;;;;9.77;2.92;;;;;;;;;;4965478;28;20035;-62
2023/10/11 07:18:27;;;;;;;11.43;2.88;;;;;;;;;;4965479;28;20937;-62
2023/10/11 07:21:10;;;;;;;11.65;3.03;;;;;;;;;;4966701;28;20049;-61
2023/10/11 07:26:23;;;;;;;7.25;3.15;;;;;;;;;;4966742;28;20276;-63
2023/10/11 07:28:50;;;;;;;;;;;;;;;;;;4964102;28;20050;-60
2023/10/11 07:31:20;;;;;;;12.00;2.85;;;;;;;;;;4953114;28;19918;-62
2023/10/11 07:33:55;;;;;;;11.60;3.17;;;;;;;;;;4958464;28;20117;-60
2023/10/11 07:36:22;;;;;;;11.75;2.83;;;;;;;;;;4952264;28;20530;-60
2023/10/11 07:39:00;;;;;;;13.73;3.17;;;;;;;;;;4950641;28;20047;-60
2023/10/11 07:41:29;;;;;;;9.70;2.83;;;;;;;;;;4958751;28;20874;-59
2023/10/11 07:43:56;;;;;;;12.45;3.17;;;;;;;;;;4955984;28;20093;-60
2023/10/11 07:46:23;;;;;;;10.10;2.70;;;;;;;;;;4956540;28;20039;-62
2023/10/11 07:49:01;;;;;;;15.48;3.45;;;;;;;;;;4956593;28;20050;-61
2023/10/11 07:51:30;;;;;;;8.70;2.85;;;;;;;;;;4955098;28;21449;-63
2023/10/11 07:53:57;;;;;;;13.00;2.88;;;;;;;;;;4939100;28;20038;-59
2023/10/11 07:56:24;;;;;;;13.13;3.60;;;;;;;;;;4955559;28;20043;-60
2023/10/11 07:58:51;;;;;;;8.35;2.85;;;;;;;;;;4955834;28;20050;-60
2023/10/11 08:07:12;;;;;;;11.43;3.00;;;;;;;;;;4975409;28;20559;-57
2023/10/11 08:09:52;;;;;;;13.55;2.58;;;;;;;;;;4955680;28;20035;-59
2023/10/11 08:12:22;;;;;;;7.60;1.95;;;;;;;;;;4967796;28;20073;-59
2023/10/11 08:14:48;;;;;;;8.23;1.90;;;;;;;;;;4956262;28;20113;-57
2023/10/11 08:17:16;;;;;;;6.57;1.75;;;;;;;;;;4954188;28;20093;-58
2023/10/11 08:19:47;;;;;;;8.63;2.28;;;;;;;;;;4953981;28;20043;-58
2023/10/11 08:22:14;;;;;;;4.53;1.83;;;;;;;;;;4955704;28;20492;-59
2023/10/11 08:24:49;;;;;;;9.13;2.03;;;;;;;;;;4969091;28;20317;-59
2023/10/11 08:27:27;;;;;;;7.32;2.38;;;;;;;;;;4958324;28;20572;-57
2023/10/11 08:30:17;;;;;;;5.82;1.58;;;;;;;;;;4976036;28;20515;-58
2023/10/11 08:32:46;;;;;;;7.75;1.70;;;;;;;;;;4962034;28;23713;-58
2023/10/11 08:35:33;;;;;;;10.95;1.90;;;;;;;;;;4954198;28;20062;-59
2023/10/11 08:38:06;;;;;;;5.22;1.90;;;;;;;;;;4955481;28;20485;-59
2023/10/11 08:40:36;;;;;;;;;;;;;;;;;;4955603;28;20047;-58
2023/10/11 08:43:04;;;;;;;10.68;1.55;;;;;;;;;;4953120;28;21182;-63
2023/10/11 08:45:33;;;;;;;8.38;1.75;;;;;;;;;;4955695;28;20599;-58
2023/10/11 08:48:06;;;;;;;5.90;1.67;;;;;;;;;;4963263;28;20533;-58
2023/10/11 08:50:37;;;;;;;4.78;1.50;;;;;;;;;;4958421;28;20090;-59
2023/10/11 08:53:10;;;;;;;6.90;1.55;;;;;;;;;;4959280;28;20125;-59
2023/10/11 08:55:40;;;;;;;6.78;1.50;;;;;;;;;;4972853;28;20079;-58
2023/10/11 08:58:12;;;;;;;5.97;1.40;;;;;;;;;;4959545;28;20050;-64
2023/10/11 09:00:43;;;;;;;4.07;1.38;;;;;;;;;;4955161;28;20046;-58
2023/10/11 09:03:20;;;;;;;4.00;1.08;;;;;;;;;;4955834;28;20038;-58
2023/10/11 09:05:47;;;;;;;6.57;1.48;;;;;;;;;;4955279;28;20531;-58
2023/10/11 09:08:26;;;;;;;5.63;1.40;;;;;;;;;;4956137;28;20415;-58
2023/10/11 09:11:55;;;;;;;4.75;1.40;;;;;;;;;;4954829;28;20134;-58
2023/10/11 09:14:34;;;;;;;4.88;1.60;;;;;;;;;;4950395;28;20039;-59
2023/10/11 09:17:19;;;;;;;7.13;1.40;;;;;;;;;;4961101;28;20031;-58
2023/10/11 09:19:53;;;;;;;3.90;1.40;;;;;;;;;;4955299;28;20094;-57
2023/10/11 09:22:20;;;;;;;10.40;1.60;;;;;;;;;;4955186;28;20046;-59
2023/10/11 09:24:46;;;;;;;5.40;1.50;;;;;;;;;;4955960;28;20071;-57
2023/10/11 09:29:43;;;;;;;5.70;1.45;;;;;;;;;;4954800;28;20113;-59
2023/10/11 09:32:13;;;;;;;6.15;1.70;;;;;;;;;;4955742;28;20053;-59
2023/10/11 09:34:43;;;;;;;6.75;1.88;;;;;;;;;;4952187;28;20045;-57
2023/10/11 09:37:11;;;;;;;4.15;1.30;;;;;;;;;;4954918;28;20077;-63
2023/10/11 09:39:44;;;;;;;4.20;1.48;;;;;;;;;;4951765;28;21018;-60
2023/10/11 09:42:16;;;;;;;7.50;1.52;;;;;;;;;;4953972;28;20575;-58
2023/10/11 09:44:45;;;;;;;8.80;1.77;;;;;;;;;;4952124;28;20042;-58
2023/10/11 09:47:19;;;;;;;6.40;1.50;;;;;;;;;;4953741;28;20113;-59
2023/10/11 09:49:46;;;;;;;;;;;;;;;;;;4969827;28;20086;-62
2023/10/11 09:52:17;;;;;;;5.80;1.30;;;;;;;;;;4954068;28;21192;-61
2023/10/11 09:54:44;;;;;;;4.82;1.27;;;;;;;;;;4952842;28;20641;-59
2023/10/11 09:57:16;;;;;;;6.18;1.35;;;;;;;;;;4954253;28;20049;-59
2023/10/11 09:59:48;;;;;;;5.88;1.50;;;;;;;;;;4956392;28;20065;-60
2023/10/11 10:02:29;;;;;;;5.47;1.50;;;;;;;;;;4953719;28;20520;-59
2023/10/11 10:04:56;;;;;;;6.55;1.30;;;;;;;;;;4952467;28;20198;-60
2023/10/11 10:07:32;;;;;;;4.13;1.40;;;;;;;;;;4946027;28;20050;-59
2023/10/11 10:10:02;;;;;;;4.85;1.30;;;;;;;;;;4954951;28;20432;-61
2023/10/11 10:12:33;;;;;;;4.28;1.20;;;;;;;;;;4954207;28;20042;-59
2023/10/11 10:15:13;;;;;;;4.85;1.33;;;;;;;;;;4952603;28;20038;-59
2023/10/11 10:18:06;;;;;;;6.20;1.45;;;;;;;;;;4956001;28;21342;-60
2023/10/11 10:20:33;;;;;;;3.40;1.02;;;;;;;;;;4954531;28;20082;-59
2023/10/11 10:23:17;;;;;;;3.00;1.00;;;;;;;;;;4954392;28;20043;-61
2023/10/11 10:25:46;;;;;;;4.65;1.40;;;;;;;;;;4977780;28;20509;-58
2023/10/11 10:28:41;;;;;;;2.78;1.02;;;;;;;;;;4980903;28;21360;-60
2023/10/11 10:31:09;;;;;;;4.05;1.20;;;;;;;;;;4949737;28;20400;-59
2023/10/11 10:33:36;;;;;;;8.38;1.48;;;;;;;;;;4951359;28;20082;-59
2023/10/11 10:36:21;;;;;;;5.13;1.20;;;;;;;;;;4953745;28;20146;-59
2023/10/11 10:39:08;;;;;;;3.38;1.20;;;;;;;;;;4987775;28;20041;-59
2023/10/11 10:41:39;;;;;;;4.93;1.45;;;;;;;;;;4966014;28;20062;-60
2023/10/11 10:44:11;;;;;;;3.13;1.00;;;;;;;;;;4964584;28;20062;-60
2023/10/11 10:46:52;;;;;;;3.27;0.97;;;;;;;;;;4964668;28;20048;-59
2023/10/11 10:49:20;;;;;;;2.85;1.10;;;;;;;;;;4956627;28;20305;-61
2023/10/11 10:51:51;;;;;;;3.72;1.10;;;;;;;;;;4952671;28;20038;-62
2023/10/11 10:54:22;;;;;;;11.10;1.17;;;;;;;;;;4950885;28;20672;-58
2023/10/11 10:56:53;;;;;;;3.78;1.10;;;;;;;;;;4948822;28;20035;-61
2023/10/11 10:59:25;;;;;;;3.65;1.13;;;;;;;;;;4951717;28;20070;-59
2023/10/11 11:01:53;;;;;;;3.25;1.10;;;;;;;;;;4951788;28;20060;-59
2023/10/11 11:04:32;;;;;;;4.15;0.85;;;;;;;;;;4952127;28;20066;-59
2023/10/11 11:06:59;;;;;;;5.78;1.08;;;;;;;;;;4958818;28;20376;-59
2023/10/11 11:09:25;;;;;;;4.10;1.40;;;;;;;;;;4951261;28;20039;-59
2023/10/11 11:12:04;;;;;;;5.20;1.13;;;;;;;;;;4964263;28;20090;-59
2023/10/11 11:14:31;;;;;;;2.13;0.70;;;;;;;;;;4963267;28;20043;-59
2023/10/11 11:16:58;;;;;;;4.65;1.25;;;;;;;;;;4949434;28;20129;-60
2023/10/11 11:19:34;;;;;;;3.10;0.90;;;;;;;;;;4951459;28;20058;-58
2023/10/11 11:22:15;;;;;;;3.17;1.00;;;;;;;;;;4952364;28;20050;-59
2023/10/11 11:24:42;;;;;;;3.75;1.00;;;;;;;;;;4946112;28;20392;-60
2023/10/11 11:27:25;;;;;;;2.40;0.80;;;;;;;;;;4950301;28;21080;-59
2023/10/11 11:30:02;;;;;;;6.80;1.15;;;;;;;;;;4951697;28;20049;-59
2023/10/11 11:32:45;;;;;;;3.15;0.80;;;;;;;;;;4965983;28;20455;-62
2023/10/11 11:35:32;;;;;;;;;;;;;;;;;;4967195;28;20035;-60
2023/10/11 11:38:03;;;;;;;2.78;0.73;;;;;;;;;;4951597;28;19971;-59
2023/10/11 11:40:46;;;;;;;4.10;0.98;;;;;;;;;;4945721;28;20055;-62
2023/10/11 11:43:16;;;;;;;5.55;0.90;;;;;;;;;;4951394;28;20389;-64
2023/10/11 11:45:44;;;;;;;4.72;0.90;;;;;;;;;;4951029;28;20039;-61
2023/10/11 11:48:11;;;;;;;3.13;0.80;;;;;;;;;;4951667;28;20143;-60
2023/10/11 11:50:39;;;;;;;3.75;0.75;;;;;;;;;;4951430;28;20134;-60
2023/10/11 11:53:06;;;;;;;3.10;0.90;;;;;;;;;;4951865;28;20054;-62
2023/10/11 11:55:34;;;;;;;5.20;0.95;;;;;;;;;;4950714;28;20050;-59
2023/10/11 11:58:21;;;;;;;2.22;0.70;;;;;;;;;;4951839;28;20043;-59
2023/10/11 12:01:08;;;;;;;3.58;0.80;;;;;;;;;;4956587;28;20102;-60
2023/10/11 12:03:36;;;;;;;2.13;0.60;;;;;;;;;;4955334;28;20429;-59
2023/10/11 12:06:21;;;;;;;3.05;0.85;;;;;;;;;;4958056;28;20042;-62
2023/10/11 12:08:48;;;;;;;2.17;0.70;;;;;;;;;;4933614;28;20669;-59
2023/10/11 12:11:16;;;;;;;3.15;0.80;;;;;;;;;;4958254;28;20146;-62
2023/10/11 12:13:43;;;;;;;1.73;0.60;;;;;;;;;;4954849;28;20058;-60
2023/10/11 12:16:10;;;;;;;4.07;0.60;;;;;;;;;;4957636;28;20144;-59
2023/10/11 12:18:36;;;;;;;3.08;0.90;;;;;;;;;;4957120;28;20046;-59
2023/10/11 12:21:10;;;;;;;3.75;0.60;;;;;;;;;;4958589;28;20050;-59
2023/10/11 12:23:45;;;;;;;3.05;0.70;;;;;;;;;;4956746;28;20412;-59
2023/10/11 12:26:16;;;;;;;2.25;0.65;;;;;;;;;;4950226;28;20046;-60
2023/10/11 12:28:46;;;;;;;3.00;0.70;;;;;;;;;;4960824;28;20430;-59
2023/10/11 12:31:12;;;;;;;1.92;0.50;;;;;;;;;;4960098;28;20224;-62
2023/10/11 12:33:39;;;;;;;2.58;0.60;;;;;;;;;;4955449;28;20043;-59
2023/10/11 12:36:07;;;;;;;3.63;0.90;;;;;;;;;;4956107;28;20057;-63
2023/10/11 12:38:39;;;;;;;3.45;0.80;;;;;;;;;;4955767;28;20500;-57
2023/10/11 12:41:07;;;;;;;3.05;0.60;;;;;;;;;;4954337;28;20070;-62
2023/10/11 12:43:34;;;;;;;3.30;0.70;;;;;;;;;;4953244;28;20130;-59
2023/10/11 12:46:01;;;;;;;1.80;0.57;;;;;;;;;;4954678;28;20500;-62
2023/10/11 12:48:28;;;;;;;3.65;0.60;;;;;;;;;;4966339;28;20135;-59
2023/10/11 12:50:59;;;;;;;1.65;0.50;;;;;;;;;;4954673;28;20073;-59
2023/10/11 12:53:29;;;;;;;3.15;0.60;;;;;;;;;;4952918;28;20613;-64
2023/10/11 12:55:55;;;;;;;1.70;0.55;;;;;;;;;;4954538;28;20061;-62
2023/10/11 12:58:27;;;;;;;5.85;0.70;;;;;;;;;;4953584;28;20090;-65
2023/10/11 13:00:59;;;;;;;3.25;0.50;;;;;;;;;;4955047;28;20077;-64
2023/10/11 13:03:29;;;;;;;3.75;0.70;;;;;;;;;;4957345;28;20617;-60
2023/10/11 13:05:57;;;;;;;2.95;0.70;;;;;;;;;;4954430;28;20038;-62
2023/10/11 13:08:24;;;;;;;4.82;0.80;;;;;;;;;;4954779;28;20093;-60
2023/10/11 13:10:53;;;;;;;3.30;0.73;;;;;;;;;;4955801;28;20054;-61
2023/10/11 13:13:21;;;;;;;4.38;0.70;;;;;;;;;;4943256;28;20039;-65
2023/10/11 13:15:59;;;;;;;1.98;0.60;;;;;;;;;;4949978;28;20035;-63
2023/10/11 13:18:39;;;;;;;3.17;0.77;;;;;;;;;;4954998;28;20046;-63
2023/10/11 13:21:11;;;;;;;2.35;0.70;;;;;;;;;;4968525;28;20522;-63
2023/10/11 13:23:53;;;;;;;2.83;0.80;;;;;;;;;;4917214;28;20043;-63
2023/10/11 13:26:20;;;;;;;3.53;0.95;;;;;;;;;;4945629;28;20062;-67
2023/10/11 13:28:53;;;;;;;2.58;0.80;;;;;;;;;;4951001;28;20201;-61
2023/10/11 13:31:20;;;;;;;4.05;0.70;;;;;;;;;;4949249;28;20126;-63
2023/10/11 13:33:46;;;;;;;2.65;0.73;;;;;;;;;;4947372;28;20093;-65
2023/10/11 13:36:14;;;;;;;2.97;0.60;;;;;;;;;;4948396;28;20035;-61
2023/10/11 13:38:44;;;;;;;3.40;0.77;;;;;;;;;;4952267;28;20042;-63
2023/10/11 13:41:12;;;;;;;3.17;0.80;;;;;;;;;;4950328;28;20051;-63
2023/10/11 13:43:44;;;;;;;5.20;0.90;;;;;;;;;;4946621;28;21358;-63
2023/10/11 13:46:13;;;;;;;3.30;0.73;;;;;;;;;;4956916;28;20042;-62
2023/10/11 13:48:40;;;;;;;5.55;0.80;;;;;;;;;;4937665;28;20514;-61
2023/10/11 13:51:08;;;;;;;4.03;0.80;;;;;;;;;;4948517;28;20046;-63
2023/10/11 13:53:44;;;;;;;2.92;0.88;;;;;;;;;;4947025;28;20046;-62
2023/10/11 13:56:24;;;;;;;2.42;0.90;;;;;;;;;;4948937;28;20770;-60
2023/10/11 13:58:54;;;;;;;3.63;0.70;;;;;;;;;;4933723;28;21377;-62
2023/10/11 14:07:21;;;;;;;4.03;0.85;;;;;;;;;;4965923;28;20129;-64
2023/10/11 14:09:43;;;;;;;4.05;0.93;;;;;;;;;;4954857;28;20046;-64
2023/10/11 14:12:15;;;;;;;3.90;0.90;;;;;;;;;;4951554;28;20174;-59
2023/10/11 14:14:43;;;;;;;4.00;0.80;;;;;;;;;;4952228;28;20132;-63
2023/10/11 14:17:18;;;;;;;3.55;0.85;;;;;;;;;;4953491;28;20047;-61
2023/10/11 14:19:45;;;;;;;3.33;0.95;;;;;;;;;;4948864;28;20054;-64
2023/10/11 14:22:12;;;;;;;4.95;1.02;;;;;;;;;;4953972;28;20554;-62
2023/10/11 14:24:39;;;;;;;6.45;1.20;;;;;;;;;;4951977;28;20037;-65
2023/10/11 14:27:07;;;;;;;5.72;1.00;;;;;;;;;;4953045;28;20445;-63
2023/10/11 14:29:37;;;;;;;4.28;0.93;;;;;;;;;;4954111;28;20144;-62
2023/10/11 14:32:04;;;;;;;4.95;0.98;;;;;;;;;;4954790;28;20105;-65
2023/10/11 14:34:30;;;;;;;4.25;1.13;;;;;;;;;;4966466;28;20176;-65
2023/10/11 14:36:57;;;;;;;3.88;0.80;;;;;;;;;;4967545;28;20043;-65
2023/10/11 14:39:24;;;;;;;3.25;1.00;;;;;;;;;;4961942;28;20138;-65
2023/10/11 14:41:50;;;;;;;3.45;1.00;;;;;;;;;;4952490;28;20129;-64
2023/10/11 14:44:17;;;;;;;4.18;0.90;;;;;;;;;;4952311;28;20097;-65
2023/10/11 14:46:48;;;;;;;4.22;1.10;;;;;;;;;;4951269;28;20069;-65
2023/10/11 14:49:20;;;;;;;5.55;1.23;;;;;;;;;;4952001;28;20206;-65
2023/10/11 14:51:46;;;;;;;3.92;1.10;;;;;;;;;;4952192;28;20035;-66
2023/10/11 14:54:13;;;;;;;4.80;1.40;;;;;;;;;;4952246;28;20058;-66
2023/10/11 14:56:40;;;;;;;5.22;1.50;;;;;;;;;;4951698;28;20086;-66
2023/10/11 14:59:06;;;;;;;4.25;1.20;;;;;;;;;;4953563;28;20050;-67
2023/10/11 15:01:33;;;;;;;3.30;1.10;;;;;;;;;;4951085;28;20368;-66
2023/10/11 15:04:09;;;;;;;3.70;1.10;;;;;;;;;;4951773;28;20113;-66
2023/10/11 15:06:39;;;;;;;3.90;1.30;;;;;;;;;;4951694;28;20039;-66
2023/10/11 15:09:08;;;;;;;3.38;1.00;;;;;;;;;;4952723;28;20178;-66
2023/10/11 15:11:35;;;;;;;4.00;1.10;;;;;;;;;;4951965;28;20400;-67
2023/10/11 15:14:07;;;;;;;6.47;1.02;;;;;;;;;;4951613;28;20046;-66
2023/10/11 15:16:35;;;;;;;3.85;1.30;;;;;;;;;;4947657;28;20122;-68
2023/10/11 15:19:02;;;;;;;3.33;1.25;;;;;;;;;;4950715;28;20074;-65
2023/10/11 15:21:28;;;;;;;4.43;1.38;;;;;;;;;;4951040;28;20500;-67
2023/10/11 15:23:55;;;;;;;4.65;1.30;;;;;;;;;;4951333;28;20041;-65
2023/10/11 15:26:22;;;;;;;3.95;1.60;;;;;;;;;;4951970;28;20455;-66
2023/10/11 15:28:50;;;;;;;4.47;1.50;;;;;;;;;;4952548;28;20645;-67
2023/10/11 15:31:17;;;;;;;5.05;1.40;;;;;;;;;;4952649;28;20079;-66
2023/10/11 15:33:45;;;;;;;4.10;1.77;;;;;;;;;;4950421;28;20053;-66
2023/10/11 15:36:12;;;;;;;4.57;1.75;;;;;;;;;;4961454;28;20050;-65
2023/10/11 15:38:38;;;;;;;3.60;1.50;;;;;;;;;;4950960;28;20468;-67
2023/10/11 15:41:05;;;;;;;6.10;1.77;;;;;;;;;;4952743;28;20853;-65
2023/10/11 15:43:34;;;;;;;4.50;1.52;;;;;;;;;;4950827;28;20316;-64
2023/10/11 15:46:04;;;;;;;4.88;1.58;;;;;;;;;;4952099;28;20035;-65
2023/10/11 15:48:31;;;;;;;4.25;1.45;;;;;;;;;;4949620;28;20058;-64
2023/10/11 15:51:15;;;;;;;9.18;1.40;;;;;;;;;;4949774;28;20066;-65
2023/10/11 15:53:45;;;;;;;3.15;1.13;;;;;;;;;;4945969;28;20141;-65
2023/10/11 15:56:14;;;;;;;5.30;1.45;;;;;;;;;;4951455;28;20058;-65